sensor_id;sensor_type;location;lat;lon;timestamp;temperature;humidity
67054;SHT31;53960;51.826;5.850;2022-08-21T00:01:42;16.37;77.39
67054;SHT31;53960;51.826;5.850;2022-08-21T00:04:09;16.34;77.41
67054;SHT31;53960;51.826;5.850;2022-08-21T00:06:35;16.33;77.41
67054;SHT31;53960;51.826;5.850;2022-08-21T00:09:03;16.27;77.55
67054;SHT31;53960;51.826;5.850;2022-08-21T00:11:29;16.21;77.78
67054;SHT31;53960;51.826;5.850;2022-08-21T00:13:55;16.17;78.00
67054;SHT31;53960;51.826;5.850;2022-08-21T00:16:21;16.14;78.16
67054;SHT31;53960;51.826;5.850;2022-08-21T00:18:46;16.13;77.77
67054;SHT31;53960;51.826;5.850;2022-08-21T00:21:12;16.12;78.00
67054;SHT31;53960;51.826;5.850;2022-08-21T00:23:38;16.06;77.90
67054;SHT31;53960;51.826;5.850;2022-08-21T00:26:04;16.05;78.21
67054;SHT31;53960;51.826;5.850;2022-08-21T00:28:29;16.07;78.19
67054;SHT31;53960;51.826;5.850;2022-08-21T00:30:55;16.05;78.09
67054;SHT31;53960;51.826;5.850;2022-08-21T00:33:21;16.05;78.17
67054;SHT31;53960;51.826;5.850;2022-08-21T00:35:47;16.05;78.14
67054;SHT31;53960;51.826;5.850;2022-08-21T00:38:12;16.06;77.95
67054;SHT31;53960;51.826;5.850;2022-08-21T00:40:50;16.06;77.98
67054;SHT31;53960;51.826;5.850;2022-08-21T00:43:19;16.03;78.04
67054;SHT31;53960;51.826;5.850;2022-08-21T00:45:45;16.05;78.17
67054;SHT31;53960;51.826;5.850;2022-08-21T00:48:11;16.00;78.26
67054;SHT31;53960;51.826;5.850;2022-08-21T00:50:40;15.97;78.39
67054;SHT31;53960;51.826;5.850;2022-08-21T00:53:07;15.97;78.35
67054;SHT31;53960;51.826;5.850;2022-08-21T00:55:34;15.93;78.50
67054;SHT31;53960;51.826;5.850;2022-08-21T00:58:01;15.89;78.72
67054;SHT31;53960;51.826;5.850;2022-08-21T01:00:31;15.86;78.56
67054;SHT31;53960;51.826;5.850;2022-08-21T01:02:58;15.86;78.50
67054;SHT31;53960;51.826;5.850;2022-08-21T01:05:24;15.82;78.63
67054;SHT31;53960;51.826;5.850;2022-08-21T01:07:50;15.83;78.68
67054;SHT31;53960;51.826;5.850;2022-08-21T01:10:16;15.79;78.92
67054;SHT31;53960;51.826;5.850;2022-08-21T01:12:42;15.78;78.91
67054;SHT31;53960;51.826;5.850;2022-08-21T01:15:11;15.73;79.10
67054;SHT31;53960;51.826;5.850;2022-08-21T01:17:37;15.72;78.93
67054;SHT31;53960;51.826;5.850;2022-08-21T01:20:06;15.68;79.02
67054;SHT31;53960;51.826;5.850;2022-08-21T01:22:31;15.68;79.07
67054;SHT31;53960;51.826;5.850;2022-08-21T01:24:57;15.66;79.29
67054;SHT31;53960;51.826;5.850;2022-08-21T01:27:22;15.69;79.49
67054;SHT31;53960;51.826;5.850;2022-08-21T01:30:08;15.62;79.53
67054;SHT31;53960;51.826;5.850;2022-08-21T01:32:34;15.65;79.72
67054;SHT31;53960;51.826;5.850;2022-08-21T01:35:00;15.66;79.60
67054;SHT31;53960;51.826;5.850;2022-08-21T01:37:26;15.62;79.75
67054;SHT31;53960;51.826;5.850;2022-08-21T01:39:51;15.61;79.81
67054;SHT31;53960;51.826;5.850;2022-08-21T01:42:17;15.58;79.99
67054;SHT31;53960;51.826;5.850;2022-08-21T01:44:42;15.55;79.76
67054;SHT31;53960;51.826;5.850;2022-08-21T01:47:11;15.54;79.83
67054;SHT31;53960;51.826;5.850;2022-08-21T01:49:37;15.51;80.41
67054;SHT31;53960;51.826;5.850;2022-08-21T01:52:03;15.45;80.19
67054;SHT31;53960;51.826;5.850;2022-08-21T01:54:29;15.49;80.30
67054;SHT31;53960;51.826;5.850;2022-08-21T01:56:56;15.45;80.45
67054;SHT31;53960;51.826;5.850;2022-08-21T01:59:22;15.41;80.45
67054;SHT31;53960;51.826;5.850;2022-08-21T02:01:48;15.38;80.43
67054;SHT31;53960;51.826;5.850;2022-08-21T02:04:14;15.25;81.05
67054;SHT31;53960;51.826;5.850;2022-08-21T02:06:39;15.32;81.28
67054;SHT31;53960;51.826;5.850;2022-08-21T02:09:06;15.35;81.27
67054;SHT31;53960;51.826;5.850;2022-08-21T02:11:32;15.37;81.06
67054;SHT31;53960;51.826;5.850;2022-08-21T02:13:58;15.37;80.72
67054;SHT31;53960;51.826;5.850;2022-08-21T02:16:24;15.31;80.80
67054;SHT31;53960;51.826;5.850;2022-08-21T02:18:50;15.28;80.99
67054;SHT31;53960;51.826;5.850;2022-08-21T02:21:15;15.28;81.25
67054;SHT31;53960;51.826;5.850;2022-08-21T02:23:41;15.25;81.27
67054;SHT31;53960;51.826;5.850;2022-08-21T02:26:07;15.23;80.98
67054;SHT31;53960;51.826;5.850;2022-08-21T02:28:34;15.18;81.32
67054;SHT31;53960;51.826;5.850;2022-08-21T02:31:00;15.21;81.31
67054;SHT31;53960;51.826;5.850;2022-08-21T02:33:27;15.18;81.33
67054;SHT31;53960;51.826;5.850;2022-08-21T02:35:52;15.18;81.32
67054;SHT31;53960;51.826;5.850;2022-08-21T02:38:22;15.18;81.30
67054;SHT31;53960;51.826;5.850;2022-08-21T02:40:49;15.17;81.17
67054;SHT31;53960;51.826;5.850;2022-08-21T02:43:15;15.12;81.13
67054;SHT31;53960;51.826;5.850;2022-08-21T02:45:42;15.14;81.64
67054;SHT31;53960;51.826;5.850;2022-08-21T02:48:10;15.14;81.79
67054;SHT31;53960;51.826;5.850;2022-08-21T02:50:44;15.11;81.63
67054;SHT31;53960;51.826;5.850;2022-08-21T02:53:11;15.12;81.67
67054;SHT31;53960;51.826;5.850;2022-08-21T02:55:38;15.11;81.63
67054;SHT31;53960;51.826;5.850;2022-08-21T02:58:06;15.08;81.84
67054;SHT31;53960;51.826;5.850;2022-08-21T03:00:32;15.08;81.68
67054;SHT31;53960;51.826;5.850;2022-08-21T03:02:59;15.08;81.50
67054;SHT31;53960;51.826;5.850;2022-08-21T03:05:25;15.10;81.48
67054;SHT31;53960;51.826;5.850;2022-08-21T03:07:51;15.07;81.78
67054;SHT31;53960;51.826;5.850;2022-08-21T03:10:18;15.06;81.72
67054;SHT31;53960;51.826;5.850;2022-08-21T03:12:45;15.01;81.82
67054;SHT31;53960;51.826;5.850;2022-08-21T03:15:13;15.08;81.63
67054;SHT31;53960;51.826;5.850;2022-08-21T03:17:38;15.06;81.59
67054;SHT31;53960;51.826;5.850;2022-08-21T03:20:05;15.03;81.71
67054;SHT31;53960;51.826;5.850;2022-08-21T03:22:30;15.04;81.59
67054;SHT31;53960;51.826;5.850;2022-08-21T03:24:57;15.03;81.86
67054;SHT31;53960;51.826;5.850;2022-08-21T03:27:23;15.04;81.66
67054;SHT31;53960;51.826;5.850;2022-08-21T03:29:52;14.93;82.35
67054;SHT31;53960;51.826;5.850;2022-08-21T03:32:17;14.94;82.51
67054;SHT31;53960;51.826;5.850;2022-08-21T03:34:43;14.93;82.53
67054;SHT31;53960;51.826;5.850;2022-08-21T03:37:08;14.90;82.57
67054;SHT31;53960;51.826;5.850;2022-08-21T03:39:35;14.88;82.51
67054;SHT31;53960;51.826;5.850;2022-08-21T03:42:00;14.88;82.75
67054;SHT31;53960;51.826;5.850;2022-08-21T03:44:26;14.90;82.91
67054;SHT31;53960;51.826;5.850;2022-08-21T03:46:54;14.91;83.02
67054;SHT31;53960;51.826;5.850;2022-08-21T03:49:19;14.91;83.04
67054;SHT31;53960;51.826;5.850;2022-08-21T03:51:45;14.90;82.83
67054;SHT31;53960;51.826;5.850;2022-08-21T03:54:10;14.88;82.77
67054;SHT31;53960;51.826;5.850;2022-08-21T03:56:35;14.87;82.68
67054;SHT31;53960;51.826;5.850;2022-08-21T03:59:00;14.87;82.70
67054;SHT31;53960;51.826;5.850;2022-08-21T04:01:28;14.86;82.65
67054;SHT31;53960;51.826;5.850;2022-08-21T04:03:53;14.86;82.81
67054;SHT31;53960;51.826;5.850;2022-08-21T04:06:18;14.81;82.91
67054;SHT31;53960;51.826;5.850;2022-08-21T04:08:43;14.81;82.99
67054;SHT31;53960;51.826;5.850;2022-08-21T04:11:09;14.77;83.20
67054;SHT31;53960;51.826;5.850;2022-08-21T04:13:37;14.75;83.03
67054;SHT31;53960;51.826;5.850;2022-08-21T04:16:04;14.73;83.70
67054;SHT31;53960;51.826;5.850;2022-08-21T04:18:29;14.75;83.75
67054;SHT31;53960;51.826;5.850;2022-08-21T04:20:56;14.79;83.29
67054;SHT31;53960;51.826;5.850;2022-08-21T04:23:22;14.80;83.00
67054;SHT31;53960;51.826;5.850;2022-08-21T04:25:48;14.76;83.16
67054;SHT31;53960;51.826;5.850;2022-08-21T04:28:13;14.75;83.21
67054;SHT31;53960;51.826;5.850;2022-08-21T04:30:39;14.73;83.14
67054;SHT31;53960;51.826;5.850;2022-08-21T04:33:04;14.67;83.67
67054;SHT31;53960;51.826;5.850;2022-08-21T04:35:30;14.65;83.54
67054;SHT31;53960;51.826;5.850;2022-08-21T04:37:57;14.63;83.47
67054;SHT31;53960;51.826;5.850;2022-08-21T04:40:25;14.63;83.42
67054;SHT31;53960;51.826;5.850;2022-08-21T04:43:01;14.63;83.37
67054;SHT31;53960;51.826;5.850;2022-08-21T04:45:30;14.63;83.77
67054;SHT31;53960;51.826;5.850;2022-08-21T04:47:58;14.60;84.46
67054;SHT31;53960;51.826;5.850;2022-08-21T04:50:48;14.63;84.79
67054;SHT31;53960;51.826;5.850;2022-08-21T04:53:22;14.59;85.08
67054;SHT31;53960;51.826;5.850;2022-08-21T04:55:49;14.60;85.10
67054;SHT31;53960;51.826;5.850;2022-08-21T04:58:19;14.62;85.34
67054;SHT31;53960;51.826;5.850;2022-08-21T05:00:46;14.62;85.49
67054;SHT31;53960;51.826;5.850;2022-08-21T05:03:13;14.56;85.67
67054;SHT31;53960;51.826;5.850;2022-08-21T05:05:40;14.63;85.43
67054;SHT31;53960;51.826;5.850;2022-08-21T05:08:07;14.57;85.59
67054;SHT31;53960;51.826;5.850;2022-08-21T05:10:33;14.59;85.55
67054;SHT31;53960;51.826;5.850;2022-08-21T05:12:59;14.62;85.71
67054;SHT31;53960;51.826;5.850;2022-08-21T05:15:25;14.62;85.62
67054;SHT31;53960;51.826;5.850;2022-08-21T05:17:51;14.62;85.63
67054;SHT31;53960;51.826;5.850;2022-08-21T05:20:16;14.56;86.05
67054;SHT31;53960;51.826;5.850;2022-08-21T05:22:42;14.53;86.14
67054;SHT31;53960;51.826;5.850;2022-08-21T05:25:09;14.55;86.21
67054;SHT31;53960;51.826;5.850;2022-08-21T05:27:35;14.66;86.01
67054;SHT31;53960;51.826;5.850;2022-08-21T05:30:00;14.69;85.89
67054;SHT31;53960;51.826;5.850;2022-08-21T05:32:26;14.75;85.64
67054;SHT31;53960;51.826;5.850;2022-08-21T05:34:53;14.76;85.66
67054;SHT31;53960;51.826;5.850;2022-08-21T05:37:18;14.86;85.67
67054;SHT31;53960;51.826;5.850;2022-08-21T05:39:43;14.88;85.46
67054;SHT31;53960;51.826;5.850;2022-08-21T05:42:09;14.94;85.39
67054;SHT31;53960;51.826;5.850;2022-08-21T05:44:34;14.94;85.48
67054;SHT31;53960;51.826;5.850;2022-08-21T05:47:07;14.98;85.19
67054;SHT31;53960;51.826;5.850;2022-08-21T05:49:33;15.01;85.14
67054;SHT31;53960;51.826;5.850;2022-08-21T05:51:59;15.08;84.87
67054;SHT31;53960;51.826;5.850;2022-08-21T05:54:24;15.14;84.81
67054;SHT31;53960;51.826;5.850;2022-08-21T05:56:50;15.17;84.82
67054;SHT31;53960;51.826;5.850;2022-08-21T05:59:15;15.24;84.74
67054;SHT31;53960;51.826;5.850;2022-08-21T06:01:41;15.27;84.59
67054;SHT31;53960;51.826;5.850;2022-08-21T06:04:06;15.38;84.31
67054;SHT31;53960;51.826;5.850;2022-08-21T06:06:33;15.41;83.92
67054;SHT31;53960;51.826;5.850;2022-08-21T06:08:58;15.47;83.68
67054;SHT31;53960;51.826;5.850;2022-08-21T06:11:24;15.56;83.36
67054;SHT31;53960;51.826;5.850;2022-08-21T06:13:49;15.61;83.34
67054;SHT31;53960;51.826;5.850;2022-08-21T06:16:15;15.68;83.13
67054;SHT31;53960;51.826;5.850;2022-08-21T06:18:41;15.79;82.78
67054;SHT31;53960;51.826;5.850;2022-08-21T06:21:07;15.81;82.62
67054;SHT31;53960;51.826;5.850;2022-08-21T06:23:34;15.90;82.43
67054;SHT31;53960;51.826;5.850;2022-08-21T06:26:00;16.00;82.26
67054;SHT31;53960;51.826;5.850;2022-08-21T06:28:26;16.05;82.05
67054;SHT31;53960;51.826;5.850;2022-08-21T06:30:51;16.05;82.01
67054;SHT31;53960;51.826;5.850;2022-08-21T06:33:17;16.09;81.58
67054;SHT31;53960;51.826;5.850;2022-08-21T06:35:42;16.17;81.65
67054;SHT31;53960;51.826;5.850;2022-08-21T06:38:08;16.28;81.13
67054;SHT31;53960;51.826;5.850;2022-08-21T06:40:33;16.37;80.73
67054;SHT31;53960;51.826;5.850;2022-08-21T06:43:06;16.41;80.94
67054;SHT31;53960;51.826;5.850;2022-08-21T06:45:32;16.48;80.47
67054;SHT31;53960;51.826;5.850;2022-08-21T06:47:57;16.53;80.49
67054;SHT31;53960;51.826;5.850;2022-08-21T06:50:22;16.55;80.46
67054;SHT31;53960;51.826;5.850;2022-08-21T06:52:48;16.61;80.61
67054;SHT31;53960;51.826;5.850;2022-08-21T08:33:30;19.42;76.88
67054;SHT31;53960;51.826;5.850;2022-08-21T08:35:56;19.52;76.38
67054;SHT31;53960;51.826;5.850;2022-08-21T08:38:23;19.54;76.07
67054;SHT31;53960;51.826;5.850;2022-08-21T08:41:15;19.58;76.29
67054;SHT31;53960;51.826;5.850;2022-08-21T08:43:48;19.62;75.88
67054;SHT31;53960;51.826;5.850;2022-08-21T08:46:16;19.69;75.64
67054;SHT31;53960;51.826;5.850;2022-08-21T08:49:00;19.90;75.12
67054;SHT31;53960;51.826;5.850;2022-08-21T08:51:44;20.06;74.80
67054;SHT31;53960;51.826;5.850;2022-08-21T08:54:16;20.20;74.39
67054;SHT31;53960;51.826;5.850;2022-08-21T08:56:43;20.24;73.60
67054;SHT31;53960;51.826;5.850;2022-08-21T08:59:15;20.30;73.15
67054;SHT31;53960;51.826;5.850;2022-08-21T09:01:41;20.24;72.85
67054;SHT31;53960;51.826;5.850;2022-08-21T09:04:07;20.13;73.27
67054;SHT31;53960;51.826;5.850;2022-08-21T09:06:48;20.13;73.10
67054;SHT31;53960;51.826;5.850;2022-08-21T09:15:09;20.48;71.66
67054;SHT31;53960;51.826;5.850;2022-08-21T09:17:56;20.57;71.47
67054;SHT31;53960;51.826;5.850;2022-08-21T09:20:32;20.63;70.83
67054;SHT31;53960;51.826;5.850;2022-08-21T09:23:21;20.75;70.99
67054;SHT31;53960;51.826;5.850;2022-08-21T09:26:04;20.99;70.51
67054;SHT31;53960;51.826;5.850;2022-08-21T09:28:33;21.09;69.01
67054;SHT31;53960;51.826;5.850;2022-08-21T09:31:01;21.09;69.39
67054;SHT31;53960;51.826;5.850;2022-08-21T09:33:28;21.13;68.22
67054;SHT31;53960;51.826;5.850;2022-08-21T09:35:55;21.09;68.21
67054;SHT31;53960;51.826;5.850;2022-08-21T09:38:30;21.13;68.26
67054;SHT31;53960;51.826;5.850;2022-08-21T09:41:08;21.23;68.34
67054;SHT31;53960;51.826;5.850;2022-08-21T09:43:35;21.35;67.62
67054;SHT31;53960;51.826;5.850;2022-08-21T09:48:48;21.77;67.35
67054;SHT31;53960;51.826;5.850;2022-08-21T09:51:20;21.80;65.50
67054;SHT31;53960;51.826;5.850;2022-08-21T09:53:55;21.88;65.15
67054;SHT31;53960;51.826;5.850;2022-08-21T09:59:26;21.91;64.90
67054;SHT31;53960;51.826;5.850;2022-08-21T10:01:53;21.83;65.04
67054;SHT31;53960;51.826;5.850;2022-08-21T10:04:26;21.88;65.14
67054;SHT31;53960;51.826;5.850;2022-08-21T10:06:52;21.90;63.12
67054;SHT31;53960;51.826;5.850;2022-08-21T10:09:19;21.81;63.56
67054;SHT31;53960;51.826;5.850;2022-08-21T10:20:04;22.11;63.17
67054;SHT31;53960;51.826;5.850;2022-08-21T10:23:03;21.97;62.61
67054;SHT31;53960;51.826;5.850;2022-08-21T10:25:43;22.05;61.11
67054;SHT31;53960;51.826;5.850;2022-08-21T10:28:27;22.12;61.26
67054;SHT31;53960;51.826;5.850;2022-08-21T10:31:21;22.07;60.74
67054;SHT31;53960;51.826;5.850;2022-08-21T10:34:14;22.15;60.36
67054;SHT31;53960;51.826;5.850;2022-08-21T10:37:12;22.18;60.82
67054;SHT31;53960;51.826;5.850;2022-08-21T10:42:36;22.18;61.39
67054;SHT31;53960;51.826;5.850;2022-08-21T10:45:22;22.32;60.20
67054;SHT31;53960;51.826;5.850;2022-08-21T10:47:55;22.52;60.27
67054;SHT31;53960;51.826;5.850;2022-08-21T10:50:25;22.75;59.17
67054;SHT31;53960;51.826;5.850;2022-08-21T10:53:03;22.86;58.89
67054;SHT31;53960;51.826;5.850;2022-08-21T10:55:39;23.08;58.54
67054;SHT31;53960;51.826;5.850;2022-08-21T10:58:11;23.04;58.08
67054;SHT31;53960;51.826;5.850;2022-08-21T11:00:50;23.23;57.27
67054;SHT31;53960;51.826;5.850;2022-08-21T11:03:45;23.41;56.07
67054;SHT31;53960;51.826;5.850;2022-08-21T11:06:20;23.40;56.45
67054;SHT31;53960;51.826;5.850;2022-08-21T11:08:50;23.43;56.45
67054;SHT31;53960;51.826;5.850;2022-08-21T11:11:30;23.45;55.16
67054;SHT31;53960;51.826;5.850;2022-08-21T11:14:10;23.17;56.29
67054;SHT31;53960;51.826;5.850;2022-08-21T11:16:48;22.99;57.38
67054;SHT31;53960;51.826;5.850;2022-08-21T11:19:19;23.03;57.85
67054;SHT31;53960;51.826;5.850;2022-08-21T11:21:54;23.17;57.21
67054;SHT31;53960;51.826;5.850;2022-08-21T11:24:35;23.14;56.98
67054;SHT31;53960;51.826;5.850;2022-08-21T11:27:36;23.44;55.49
67054;SHT31;53960;51.826;5.850;2022-08-21T11:30:03;23.73;54.51
67054;SHT31;53960;51.826;5.850;2022-08-21T11:35:45;23.85;55.26
67054;SHT31;53960;51.826;5.850;2022-08-21T11:38:29;23.86;55.67
67054;SHT31;53960;51.826;5.850;2022-08-21T11:41:17;24.03;55.32
67054;SHT31;53960;51.826;5.850;2022-08-21T11:43:56;23.93;53.10
67054;SHT31;53960;51.826;5.850;2022-08-21T11:49:10;23.64;54.56
67054;SHT31;53960;51.826;5.850;2022-08-21T11:54:55;23.89;54.11
67054;SHT31;53960;51.826;5.850;2022-08-21T11:57:27;23.68;54.56
67054;SHT31;53960;51.826;5.850;2022-08-21T12:00:52;23.41;55.29
67054;SHT31;53960;51.826;5.850;2022-08-21T12:02:58;23.34;54.04
67054;SHT31;53960;51.826;5.850;2022-08-21T12:05:35;23.21;53.57
67054;SHT31;53960;51.826;5.850;2022-08-21T12:08:11;23.03;53.77
67054;SHT31;53960;51.826;5.850;2022-08-21T12:10:46;23.18;54.26
67054;SHT31;53960;51.826;5.850;2022-08-21T12:13:24;23.33;53.72
67054;SHT31;53960;51.826;5.850;2022-08-21T12:15:51;23.47;52.97
67054;SHT31;53960;51.826;5.850;2022-08-21T12:18:29;23.72;53.01
67054;SHT31;53960;51.826;5.850;2022-08-21T12:23:33;23.99;52.96
67054;SHT31;53960;51.826;5.850;2022-08-21T12:29:05;24.34;51.10
67054;SHT31;53960;51.826;5.850;2022-08-21T12:31:33;24.61;50.20
67054;SHT31;53960;51.826;5.850;2022-08-21T12:34:01;24.85;49.29
67054;SHT31;53960;51.826;5.850;2022-08-21T12:36:44;25.07;49.67
67054;SHT31;53960;51.826;5.850;2022-08-21T12:39:15;25.14;48.37
67054;SHT31;53960;51.826;5.850;2022-08-21T12:41:49;25.45;48.42
67054;SHT31;53960;51.826;5.850;2022-08-21T12:44:21;25.60;47.28
67054;SHT31;53960;51.826;5.850;2022-08-21T12:46:57;25.67;47.38
67054;SHT31;53960;51.826;5.850;2022-08-21T12:49:50;25.67;46.52
67054;SHT31;53960;51.826;5.850;2022-08-21T12:52:29;25.90;47.14
67054;SHT31;53960;51.826;5.850;2022-08-21T12:54:55;25.67;46.22
67054;SHT31;53960;51.826;5.850;2022-08-21T12:57:26;25.33;47.38
67054;SHT31;53960;51.826;5.850;2022-08-21T13:00:00;25.60;48.40
67054;SHT31;53960;51.826;5.850;2022-08-21T13:02:30;25.89;45.56
67054;SHT31;53960;51.826;5.850;2022-08-21T13:04:56;25.77;44.94
67054;SHT31;53960;51.826;5.850;2022-08-21T13:07:29;25.67;45.37
67054;SHT31;53960;51.826;5.850;2022-08-21T13:10:00;25.89;45.45
67054;SHT31;53960;51.826;5.850;2022-08-21T13:12:28;25.86;44.74
67054;SHT31;53960;51.826;5.850;2022-08-21T13:14:56;25.60;44.86
67054;SHT31;53960;51.826;5.850;2022-08-21T13:17:24;25.53;45.27
67054;SHT31;53960;51.826;5.850;2022-08-21T13:19:58;25.80;45.43
67054;SHT31;53960;51.826;5.850;2022-08-21T13:22:24;26.04;44.18
67054;SHT31;53960;51.826;5.850;2022-08-21T13:24:50;25.73;44.97
67054;SHT31;53960;51.826;5.850;2022-08-21T13:27:24;25.62;44.71
67054;SHT31;53960;51.826;5.850;2022-08-21T13:30:03;25.83;43.69
67054;SHT31;53960;51.826;5.850;2022-08-21T13:32:30;26.01;42.91
67054;SHT31;53960;51.826;5.850;2022-08-21T13:34:56;26.24;43.38
67054;SHT31;53960;51.826;5.850;2022-08-21T13:37:23;26.39;43.01
67054;SHT31;53960;51.826;5.850;2022-08-21T13:39:52;26.24;43.26
67054;SHT31;53960;51.826;5.850;2022-08-21T13:42:17;26.04;43.56
67054;SHT31;53960;51.826;5.850;2022-08-21T13:44:46;25.54;44.41
67054;SHT31;53960;51.826;5.850;2022-08-21T13:47:13;25.42;45.14
67054;SHT31;53960;51.826;5.850;2022-08-21T13:49:43;25.07;45.93
67054;SHT31;53960;51.826;5.850;2022-08-21T13:52:20;24.85;47.36
67054;SHT31;53960;51.826;5.850;2022-08-21T13:54:54;24.94;47.16
67054;SHT31;53960;51.826;5.850;2022-08-21T13:57:26;25.22;46.92
67054;SHT31;53960;51.826;5.850;2022-08-21T13:59:52;25.28;45.99
67054;SHT31;53960;51.826;5.850;2022-08-21T14:02:23;25.22;45.70
67054;SHT31;53960;51.826;5.850;2022-08-21T14:05:00;25.40;45.91
67054;SHT31;53960;51.826;5.850;2022-08-21T14:07:29;25.56;44.95
67054;SHT31;53960;51.826;5.850;2022-08-21T14:10:00;25.86;44.51
67054;SHT31;53960;51.826;5.850;2022-08-21T14:12:32;26.13;44.28
67054;SHT31;53960;51.826;5.850;2022-08-21T14:15:04;26.18;43.59
67054;SHT31;53960;51.826;5.850;2022-08-21T14:17:33;26.20;42.66
67054;SHT31;53960;51.826;5.850;2022-08-21T14:20:00;26.00;42.78
67054;SHT31;53960;51.826;5.850;2022-08-21T14:22:36;25.74;42.95
67054;SHT31;53960;51.826;5.850;2022-08-21T14:27:33;25.84;44.20
67054;SHT31;53960;51.826;5.850;2022-08-21T14:30:27;25.96;44.49
67054;SHT31;53960;51.826;5.850;2022-08-21T14:32:47;25.94;44.88
67054;SHT31;53960;51.826;5.850;2022-08-21T14:35:13;25.81;44.14
67054;SHT31;53960;51.826;5.850;2022-08-21T14:37:42;25.60;44.72
67054;SHT31;53960;51.826;5.850;2022-08-21T14:40:08;25.49;45.28
67054;SHT31;53960;51.826;5.850;2022-08-21T14:42:34;25.43;45.62
67054;SHT31;53960;51.826;5.850;2022-08-21T14:45:02;25.62;45.91
67054;SHT31;53960;51.826;5.850;2022-08-21T14:47:27;25.62;44.95
67054;SHT31;53960;51.826;5.850;2022-08-21T14:49:53;25.54;44.44
67054;SHT31;53960;51.826;5.850;2022-08-21T14:52:20;25.46;44.71
67054;SHT31;53960;51.826;5.850;2022-08-21T14:54:45;25.47;45.01
67054;SHT31;53960;51.826;5.850;2022-08-21T14:57:11;25.54;44.94
67054;SHT31;53960;51.826;5.850;2022-08-21T14:59:38;25.38;44.92
67054;SHT31;53960;51.826;5.850;2022-08-21T15:02:05;24.99;45.64
67054;SHT31;53960;51.826;5.850;2022-08-21T15:04:30;24.81;45.68
67054;SHT31;53960;51.826;5.850;2022-08-21T15:06:56;24.84;46.79
67054;SHT31;53960;51.826;5.850;2022-08-21T15:09:22;24.88;45.95
67054;SHT31;53960;51.826;5.850;2022-08-21T15:11:48;24.88;46.26
67054;SHT31;53960;51.826;5.850;2022-08-21T15:14:27;24.91;46.62
67054;SHT31;53960;51.826;5.850;2022-08-21T15:16:53;24.88;46.23
67054;SHT31;53960;51.826;5.850;2022-08-21T15:19:19;24.94;45.91
67054;SHT31;53960;51.826;5.850;2022-08-21T15:21:44;24.82;45.93
67054;SHT31;53960;51.826;5.850;2022-08-21T15:24:09;24.85;45.96
67054;SHT31;53960;51.826;5.850;2022-08-21T15:26:36;24.90;46.50
67054;SHT31;53960;51.826;5.850;2022-08-21T15:29:02;25.05;45.61
67054;SHT31;53960;51.826;5.850;2022-08-21T15:31:27;25.11;43.97
67054;SHT31;53960;51.826;5.850;2022-08-21T15:33:53;25.01;44.15
67054;SHT31;53960;51.826;5.850;2022-08-21T15:36:19;24.71;44.34
67054;SHT31;53960;51.826;5.850;2022-08-21T15:38:45;24.70;44.23
67054;SHT31;53960;51.826;5.850;2022-08-21T15:41:10;24.65;44.59
67054;SHT31;53960;51.826;5.850;2022-08-21T15:43:46;24.59;44.97
67054;SHT31;53960;51.826;5.850;2022-08-21T15:46:14;24.54;45.37
67054;SHT31;53960;51.826;5.850;2022-08-21T15:48:41;24.40;45.39
67054;SHT31;53960;51.826;5.850;2022-08-21T15:51:07;24.34;46.05
67054;SHT31;53960;51.826;5.850;2022-08-21T15:53:33;24.30;46.33
67054;SHT31;53960;51.826;5.850;2022-08-21T15:56:04;24.19;46.77
67054;SHT31;53960;51.826;5.850;2022-08-21T15:58:29;24.14;46.79
67054;SHT31;53960;51.826;5.850;2022-08-21T16:00:58;24.14;46.97
67054;SHT31;53960;51.826;5.850;2022-08-21T16:03:24;24.09;46.95
67054;SHT31;53960;51.826;5.850;2022-08-21T16:05:51;24.02;46.97
67054;SHT31;53960;51.826;5.850;2022-08-21T16:08:19;23.98;47.43
67054;SHT31;53960;51.826;5.850;2022-08-21T16:10:45;23.85;47.49
67054;SHT31;53960;51.826;5.850;2022-08-21T16:13:16;23.92;47.29
67054;SHT31;53960;51.826;5.850;2022-08-21T16:15:42;23.88;47.47
67054;SHT31;53960;51.826;5.850;2022-08-21T16:18:08;23.75;47.80
67054;SHT31;53960;51.826;5.850;2022-08-21T16:20:34;23.71;47.96
67054;SHT31;53960;51.826;5.850;2022-08-21T16:23:00;23.62;47.62
67054;SHT31;53960;51.826;5.850;2022-08-21T16:25:25;23.55;47.73
67054;SHT31;53960;51.826;5.850;2022-08-21T16:27:56;23.45;48.34
67054;SHT31;53960;51.826;5.850;2022-08-21T16:30:22;23.43;48.55
67054;SHT31;53960;51.826;5.850;2022-08-21T16:32:48;23.35;48.62
67054;SHT31;53960;51.826;5.850;2022-08-21T16:35:16;23.40;48.99
67054;SHT31;53960;51.826;5.850;2022-08-21T16:37:43;23.43;49.11
67054;SHT31;53960;51.826;5.850;2022-08-21T16:40:09;23.40;48.70
67054;SHT31;53960;51.826;5.850;2022-08-21T16:42:36;23.31;49.03
67054;SHT31;53960;51.826;5.850;2022-08-21T16:45:06;23.31;49.39
67054;SHT31;53960;51.826;5.850;2022-08-21T16:47:32;23.28;49.91
67054;SHT31;53960;51.826;5.850;2022-08-21T16:49:58;23.35;50.21
67054;SHT31;53960;51.826;5.850;2022-08-21T16:52:23;23.21;50.43
67054;SHT31;53960;51.826;5.850;2022-08-21T16:54:49;23.15;50.90
67054;SHT31;53960;51.826;5.850;2022-08-21T16:57:14;23.10;51.11
67054;SHT31;53960;51.826;5.850;2022-08-21T16:59:40;22.97;51.92
67054;SHT31;53960;51.826;5.850;2022-08-21T17:02:17;22.96;52.66
67054;SHT31;53960;51.826;5.850;2022-08-21T17:04:45;22.87;53.39
67054;SHT31;53960;51.826;5.850;2022-08-21T17:07:10;22.80;53.73
67054;SHT31;53960;51.826;5.850;2022-08-21T17:09:36;22.77;54.29
67054;SHT31;53960;51.826;5.850;2022-08-21T17:12:01;22.77;53.68
67054;SHT31;53960;51.826;5.850;2022-08-21T17:14:27;22.69;53.80
67054;SHT31;53960;51.826;5.850;2022-08-21T17:16:54;22.55;54.58
67054;SHT31;53960;51.826;5.850;2022-08-21T17:19:22;22.52;54.90
67054;SHT31;53960;51.826;5.850;2022-08-21T17:21:47;22.52;55.15
67054;SHT31;53960;51.826;5.850;2022-08-21T17:24:13;22.52;54.80
67054;SHT31;53960;51.826;5.850;2022-08-21T17:26:40;22.48;54.86
67054;SHT31;53960;51.826;5.850;2022-08-21T17:29:06;22.55;54.74
67054;SHT31;53960;51.826;5.850;2022-08-21T17:31:34;22.44;54.43
67054;SHT31;53960;51.826;5.850;2022-08-21T17:34:02;22.39;54.38
67054;SHT31;53960;51.826;5.850;2022-08-21T17:36:29;22.42;54.54
67054;SHT31;53960;51.826;5.850;2022-08-21T17:38:55;22.41;53.12
67054;SHT31;53960;51.826;5.850;2022-08-21T17:41:22;22.29;53.18
67054;SHT31;53960;51.826;5.850;2022-08-21T17:43:48;22.21;53.30
67054;SHT31;53960;51.826;5.850;2022-08-21T17:46:27;22.18;53.35
67054;SHT31;53960;51.826;5.850;2022-08-21T17:48:54;22.17;53.96
67054;SHT31;53960;51.826;5.850;2022-08-21T17:51:20;22.17;53.78
67054;SHT31;53960;51.826;5.850;2022-08-21T17:53:46;22.14;53.81
67054;SHT31;53960;51.826;5.850;2022-08-21T17:56:13;22.08;54.02
67054;SHT31;53960;51.826;5.850;2022-08-21T17:58:39;22.08;54.11
67054;SHT31;53960;51.826;5.850;2022-08-21T18:01:06;22.05;54.26